createdAt,value
2022-10-21T00:01:13.342Z,100.00
2022-10-21T00:03:42.354Z,100.00
2022-10-21T00:06:11.427Z,100.00
2022-10-21T00:08:40.437Z,100.00
2022-10-21T00:11:11.357Z,100.00
2022-10-21T00:13:40.823Z,100.00
2022-10-21T00:16:11.814Z,100.00
2022-10-21T00:18:41.745Z,100.00
2022-10-21T00:21:12.140Z,100.00
2022-10-21T00:23:40.852Z,100.00
2022-10-21T00:26:11.177Z,100.00
2022-10-21T00:28:39.779Z,100.00
2022-10-21T00:31:09.165Z,100.00
2022-10-21T00:33:38.304Z,100.00
2022-10-21T00:36:07.633Z,100.00
2022-10-21T00:38:37.551Z,100.00
2022-10-21T00:41:06.085Z,100.00
2022-10-21T00:44:01.071Z,100.00
2022-10-21T00:46:35.937Z,100.00
2022-10-21T00:49:08.319Z,100.00
2022-10-21T00:51:36.956Z,100.00
2022-10-21T00:54:06.537Z,100.00
2022-10-21T00:56:36.237Z,100.00
2022-10-21T00:59:08.296Z,100.00
2022-10-21T01:01:36.819Z,100.00
2022-10-21T01:04:06.299Z,100.00
2022-10-21T01:06:35.869Z,100.00
2022-10-21T01:09:04.604Z,100.00
2022-10-21T01:11:43.509Z,100.00
2022-10-21T01:14:42.464Z,100.00
2022-10-21T01:17:26.708Z,100.00
2022-10-21T01:20:39.102Z,100.00
2022-10-21T01:23:42.166Z,100.00
2022-10-21T01:26:39.071Z,100.00
2022-10-21T01:29:22.671Z,100.00
2022-10-21T01:31:57.755Z,100.00
2022-10-21T01:34:29.810Z,100.00
2022-10-21T01:36:59.939Z,100.00
2022-10-21T01:39:31.765Z,100.00
2022-10-21T01:42:05.055Z,100.00
2022-10-21T01:44:37.822Z,100.00
2022-10-21T01:47:10.857Z,100.00
2022-10-21T01:49:42.111Z,100.00
2022-10-21T01:52:10.760Z,100.00
2022-10-21T01:54:41.383Z,100.00
2022-10-21T01:57:10.498Z,100.00
2022-10-21T01:59:40.226Z,100.00
2022-10-21T02:02:11.934Z,100.00
2022-10-21T02:04:42.960Z,100.00
2022-10-21T02:07:11.923Z,100.00
2022-10-21T02:09:40.868Z,100.00
2022-10-21T02:12:09.967Z,100.00
2022-10-21T02:14:42.618Z,100.00
2022-10-21T02:17:15.882Z,100.00
2022-10-21T02:19:44.708Z,100.00
2022-10-21T02:22:15.333Z,100.00
2022-10-21T02:24:48.645Z,100.00
2022-10-21T02:27:17.204Z,100.00
2022-10-21T02:29:46.991Z,100.00
2022-10-21T02:32:27.596Z,100.00
2022-10-21T02:35:09.313Z,100.00
2022-10-21T02:37:42.423Z,100.00
2022-10-21T02:40:13.826Z,100.00
2022-10-21T02:42:46.057Z,100.00
2022-10-21T02:45:14.623Z,100.00
2022-10-21T02:47:45.045Z,100.00
2022-10-21T02:50:13.389Z,100.00
2022-10-21T02:52:42.011Z,100.00
2022-10-21T02:55:10.958Z,100.00
2022-10-21T02:57:39.841Z,100.00
2022-10-21T03:00:09.649Z,100.00
2022-10-21T03:02:38.140Z,100.00
2022-10-21T03:05:09.376Z,100.00
2022-10-21T03:07:38.341Z,100.00
2022-10-21T03:10:07.904Z,100.00
2022-10-21T03:12:36.277Z,100.00
2022-10-21T03:15:06.340Z,100.00
2022-10-21T03:17:34.908Z,100.00
2022-10-21T03:20:03.116Z,100.00
2022-10-21T03:22:32.736Z,100.00
2022-10-21T03:25:01.322Z,100.00
2022-10-21T03:29:58.255Z,100.00
2022-10-21T03:32:26.902Z,100.00
2022-10-21T03:34:55.205Z,100.00
2022-10-21T03:37:23.482Z,100.00
2022-10-21T03:39:53.510Z,100.00
2022-10-21T03:42:21.875Z,100.00
2022-10-21T03:44:50.331Z,100.00
2022-10-21T03:47:18.724Z,100.00
2022-10-21T03:49:47.100Z,100.00
2022-10-21T03:52:15.721Z,100.00
2022-10-21T03:54:44.176Z,100.00
2022-10-21T03:57:15.295Z,100.00
2022-10-21T03:59:43.924Z,100.00
2022-10-21T04:02:13.884Z,100.00
2022-10-21T04:04:42.646Z,100.00
2022-10-21T04:07:11.527Z,100.00
2022-10-21T04:09:39.897Z,100.00
2022-10-21T04:12:08.310Z,100.00
2022-10-21T04:14:38.365Z,100.00
2022-10-21T04:17:07.821Z,100.00
2022-10-21T04:19:36.623Z,100.00
2022-10-21T04:22:05.413Z,100.00
2022-10-21T04:24:33.764Z,100.00
2022-10-21T04:27:02.134Z,100.00
2022-10-21T04:29:30.586Z,100.00
2022-10-21T04:32:00.747Z,100.00
2022-10-21T04:34:29.226Z,100.00
2022-10-21T04:37:01.073Z,100.00
2022-10-21T04:39:32.755Z,100.00
2022-10-21T04:42:01.110Z,100.00
2022-10-21T04:44:29.534Z,100.00
2022-10-21T04:46:59.371Z,100.00
2022-10-21T04:49:27.865Z,100.00
2022-10-21T04:51:56.433Z,100.00
2022-10-21T04:54:24.910Z,100.00
2022-10-21T04:56:53.360Z,100.00
2022-10-21T04:59:23.042Z,100.00
2022-10-21T05:01:51.443Z,100.00
2022-10-21T05:04:21.323Z,100.00
2022-10-21T05:06:49.726Z,100.00
2022-10-21T05:09:18.233Z,100.00
2022-10-21T05:11:46.828Z,100.00
2022-10-21T05:14:18.759Z,100.00
2022-10-21T05:16:50.175Z,100.00
2022-10-21T05:19:18.621Z,100.00
2022-10-21T05:21:48.335Z,100.00
2022-10-21T05:24:16.776Z,100.00
2022-10-21T05:26:45.057Z,100.00
2022-10-21T05:29:13.469Z,100.00
2022-10-21T05:31:42.409Z,100.00
2022-10-21T05:34:10.805Z,100.00
2022-10-21T05:36:39.192Z,100.00
2022-10-21T05:39:11.494Z,100.00
2022-10-21T05:41:41.102Z,100.00
2022-10-21T05:44:11.638Z,100.00
2022-10-21T05:46:40.144Z,100.00
2022-10-21T05:49:08.770Z,100.00
2022-10-21T05:51:41.903Z,100.00
2022-10-21T05:54:12.433Z,100.00
2022-10-21T05:56:42.137Z,100.00
2022-10-21T05:59:11.050Z,100.00
2022-10-21T06:01:41.258Z,100.00
2022-10-21T06:04:10.284Z,100.00
2022-10-21T06:06:39.805Z,100.00
2022-10-21T06:09:08.331Z,100.00
2022-10-21T06:11:38.469Z,100.00
2022-10-21T06:14:07.127Z,100.00
2022-10-21T06:16:35.611Z,100.00
2022-10-21T06:19:04.750Z,100.00
2022-10-21T06:21:33.303Z,100.00
2022-10-21T06:24:02.268Z,100.00
2022-10-21T06:26:34.658Z,100.00
2022-10-21T06:29:07.534Z,100.00
2022-10-21T06:31:36.650Z,100.00
2022-10-21T06:34:05.491Z,100.00
2022-10-21T06:36:34.341Z,100.00
2022-10-21T06:39:03.111Z,100.00
2022-10-21T06:41:31.696Z,100.00
2022-10-21T06:44:00.565Z,100.00
2022-10-21T06:46:30.743Z,100.00
2022-10-21T06:48:59.861Z,100.00
2022-10-21T06:51:29.575Z,100.00
2022-10-21T06:54:00.253Z,100.00
2022-10-21T06:56:30.205Z,100.00
2022-10-21T06:58:59.557Z,100.00
2022-10-21T07:01:48.478Z,100.00
2022-10-21T07:04:22.530Z,100.00
2022-10-21T07:06:52.705Z,100.00
2022-10-21T07:09:22.606Z,100.00
2022-10-21T07:11:51.927Z,100.00
2022-10-21T07:14:21.195Z,100.00
2022-10-21T07:16:51.713Z,100.00
2022-10-21T07:19:20.165Z,100.00
2022-10-21T07:21:48.531Z,100.00
2022-10-21T07:24:22.290Z,100.00
2022-10-21T07:26:52.076Z,100.00
2022-10-21T07:29:20.757Z,100.00
2022-10-21T07:31:50.922Z,100.00
2022-10-21T07:34:19.631Z,100.00
2022-10-21T07:36:52.828Z,100.00
2022-10-21T07:39:24.414Z,100.00
2022-10-21T07:41:54.856Z,100.00
2022-10-21T07:44:25.094Z,100.00
2022-10-21T07:46:56.439Z,100.00
2022-10-21T07:49:25.523Z,100.00
2022-10-21T07:51:54.690Z,100.00
2022-10-21T07:54:23.199Z,100.00
2022-10-21T07:56:53.546Z,100.00
2022-10-21T07:59:23.339Z,100.00
2022-10-21T08:01:53.721Z,100.00
2022-10-21T08:04:30.757Z,100.00
2022-10-21T08:07:01.084Z,100.00
2022-10-21T08:09:30.225Z,100.00
2022-10-21T08:11:59.146Z,100.00
2022-10-21T08:14:27.694Z,100.00
2022-10-21T08:16:56.591Z,100.00
2022-10-21T08:19:29.927Z,100.00
2022-10-21T08:22:01.088Z,100.00
2022-10-21T08:24:31.366Z,100.00
2022-10-21T08:26:59.952Z,100.00
2022-10-21T08:29:29.130Z,100.00
2022-10-21T08:31:58.353Z,100.00
2022-10-21T08:34:28.768Z,100.00
2022-10-21T08:36:58.924Z,100.00
2022-10-21T08:39:27.728Z,100.00
2022-10-21T08:42:07.294Z,100.00
2022-10-21T08:44:45.523Z,100.00
2022-10-21T08:47:32.716Z,99.32
2022-10-21T08:50:05.470Z,95.02
2022-10-21T08:52:42.645Z,90.92
2022-10-21T08:55:17.311Z,88.12
2022-10-21T08:57:45.977Z,87.67
2022-10-21T09:00:20.033Z,86.42
2022-10-21T09:03:09.130Z,85.70
2022-10-21T09:05:58.265Z,83.92
2022-10-21T09:08:34.797Z,81.92
2022-10-21T09:11:09.798Z,77.77
2022-10-21T09:13:54.526Z,76.22
2022-10-21T09:16:27.240Z,78.90
2022-10-21T09:19:03.479Z,78.18
2022-10-21T09:21:43.085Z,73.71
2022-10-21T09:24:16.204Z,73.53
2022-10-21T09:26:46.028Z,75.94
2022-10-21T09:29:23.089Z,74.58
2022-10-21T09:31:57.244Z,75.83
2022-10-21T09:34:39.054Z,77.51
2022-10-21T09:37:16.478Z,78.93
2022-10-21T09:39:48.191Z,77.35
2022-10-21T09:42:29.532Z,74.99
2022-10-21T09:45:08.760Z,72.34
2022-10-21T09:47:41.206Z,68.84
2022-10-21T09:50:16.662Z,66.49
2022-10-21T09:52:50.899Z,62.50
2022-10-21T09:55:19.578Z,61.04
2022-10-21T09:57:53.137Z,61.40
2022-10-21T10:00:24.324Z,60.58
2022-10-21T10:02:53.841Z,57.93
2022-10-21T10:05:38.726Z,57.47
2022-10-21T10:08:26.274Z,55.67
2022-10-21T10:11:17.773Z,54.83
2022-10-21T10:14:00.765Z,51.26
2022-10-21T10:16:40.149Z,52.57
2022-10-21T10:19:20.085Z,54.78
2022-10-21T10:21:51.421Z,53.04
2022-10-21T10:24:23.144Z,54.43
2022-10-21T10:26:55.663Z,59.00
2022-10-21T10:29:27.758Z,61.88
2022-10-21T10:31:57.870Z,64.48
2022-10-21T10:34:30.823Z,65.81
2022-10-21T10:37:05.956Z,69.33
2022-10-21T10:39:38.168Z,67.14
2022-10-21T10:42:06.481Z,66.92
2022-10-21T10:44:38.211Z,65.36
2022-10-21T10:47:08.157Z,62.72
2022-10-21T10:49:44.343Z,60.99
2022-10-21T10:52:22.523Z,58.90
2022-10-21T10:55:16.398Z,60.14
2022-10-21T10:58:06.214Z,62.98
2022-10-21T11:00:44.679Z,66.39
2022-10-21T11:03:28.444Z,69.07
2022-10-21T11:06:14.827Z,72.56
2022-10-21T11:08:51.612Z,75.14
2022-10-21T11:11:27.498Z,76.60
2022-10-21T11:13:56.231Z,78.89
2022-10-21T11:16:50.454Z,81.00
2022-10-21T11:19:34.349Z,83.09
2022-10-21T11:22:13.437Z,83.79
2022-10-21T11:24:59.826Z,84.15
2022-10-21T11:27:48.813Z,84.89
2022-10-21T11:30:20.049Z,85.65
2022-10-21T11:33:00.763Z,86.26
2022-10-21T11:35:40.197Z,86.97
2022-10-21T11:38:20.555Z,86.56
2022-10-21T11:40:50.813Z,86.61
2022-10-21T11:43:30.655Z,86.83
2022-10-21T11:46:03.148Z,87.30
2022-10-21T11:48:43.203Z,87.27
2022-10-21T11:51:19.227Z,87.39
2022-10-21T11:54:04.789Z,87.68
2022-10-21T11:56:39.876Z,88.03
2022-10-21T12:02:00.368Z,87.67
2022-10-21T12:04:38.365Z,87.64
2022-10-21T12:07:16.024Z,87.84
2022-10-21T12:09:49.485Z,87.71
2022-10-21T12:12:19.603Z,87.51
2022-10-21T12:14:51.911Z,87.00
2022-10-21T12:17:22.895Z,86.24
2022-10-21T12:19:56.197Z,85.80
2022-10-21T12:22:25.104Z,85.01
2022-10-21T12:24:59.034Z,84.97
2022-10-21T12:27:31.386Z,83.77
2022-10-21T12:30:06.853Z,83.96
2022-10-21T12:32:42.992Z,84.28
2022-10-21T12:35:15.255Z,84.74
2022-10-21T12:38:06.157Z,84.76
2022-10-21T12:40:40.067Z,84.67
2022-10-21T12:43:19.930Z,84.99
2022-10-21T12:46:03.169Z,83.67
2022-10-21T12:48:37.367Z,84.63
2022-10-21T12:51:12.233Z,84.94
2022-10-21T12:53:45.019Z,84.92
2022-10-21T12:56:13.351Z,85.02
2022-10-21T12:58:43.966Z,85.81
2022-10-21T13:01:40.317Z,85.89
2022-10-21T13:04:49.073Z,86.03
2022-10-21T13:07:37.569Z,86.85
2022-10-21T13:10:27.509Z,86.13
2022-10-21T13:13:34.132Z,86.80
2022-10-21T13:16:19.735Z,86.34
2022-10-21T13:19:00.351Z,87.03
2022-10-21T13:21:40.729Z,88.13
2022-10-21T13:24:32.919Z,87.71
2022-10-21T13:27:03.280Z,88.22
2022-10-21T13:29:43.175Z,87.65
2022-10-21T13:32:32.695Z,87.58
2022-10-21T13:35:33.734Z,88.00
2022-10-21T13:38:18.400Z,88.46
2022-10-21T13:40:50.314Z,89.31
2022-10-21T13:43:29.053Z,91.40
2022-10-21T13:46:06.416Z,90.37
2022-10-21T13:48:39.860Z,90.76
2022-10-21T13:51:20.953Z,92.32
2022-10-21T13:53:50.783Z,93.32
2022-10-21T13:56:23.370Z,93.08
2022-10-21T13:58:52.451Z,93.25
2022-10-21T14:01:26.151Z,92.80
2022-10-21T14:03:56.404Z,93.18
2022-10-21T14:06:31.903Z,93.51
2022-10-21T14:09:04.580Z,93.59
2022-10-21T14:11:37.720Z,94.28
2022-10-21T14:14:09.821Z,94.33
2022-10-21T14:16:41.219Z,93.77
2022-10-21T14:19:11.409Z,94.14
2022-10-21T14:21:45.948Z,94.27
2022-10-21T14:24:28.741Z,93.64
2022-10-21T14:26:57.481Z,93.39
2022-10-21T14:29:33.152Z,92.87
2022-10-21T14:32:02.481Z,92.99
2022-10-21T14:34:33.417Z,92.99
2022-10-21T14:37:09.387Z,93.15
2022-10-21T14:39:41.019Z,92.28
2022-10-21T14:42:16.535Z,92.30
2022-10-21T14:44:46.216Z,91.64
2022-10-21T14:47:19.485Z,92.15
2022-10-21T14:49:49.500Z,91.83
2022-10-21T14:52:23.063Z,91.70
2022-10-21T14:54:56.170Z,92.23
2022-10-21T14:57:33.130Z,92.69
2022-10-21T15:00:01.837Z,92.42
2022-10-21T15:02:33.504Z,91.94
2022-10-21T15:05:02.828Z,92.28
2022-10-21T15:07:36.465Z,92.77
2022-10-21T15:10:19.019Z,92.44
2022-10-21T15:12:50.644Z,92.71
2022-10-21T15:15:52.608Z,92.81
2022-10-21T15:18:26.106Z,93.88
2022-10-21T15:20:58.978Z,93.71
2022-10-21T15:23:32.695Z,94.40
2022-10-21T15:26:06.587Z,94.13
2022-10-21T15:28:36.958Z,94.02
2022-10-21T15:31:12.805Z,94.95
2022-10-21T15:33:42.145Z,95.28
2022-10-21T15:36:15.715Z,95.55
2022-10-21T15:38:47.697Z,95.85
2022-10-21T15:41:18.862Z,95.87
2022-10-21T15:43:56.316Z,96.18
2022-10-21T15:46:27.084Z,96.85
2022-10-21T15:48:57.359Z,97.23
2022-10-21T15:51:27.273Z,97.55
2022-10-21T15:54:07.127Z,98.72
2022-10-21T15:56:37.146Z,98.38
2022-10-21T15:59:06.889Z,99.70
2022-10-21T16:01:35.979Z,100.00
2022-10-21T16:04:07.053Z,100.00
2022-10-21T16:06:40.389Z,100.00
2022-10-21T16:09:16.748Z,100.00
2022-10-21T16:11:58.971Z,100.00
2022-10-21T16:14:30.032Z,100.00
2022-10-21T16:17:03.561Z,100.00
2022-10-21T16:19:35.075Z,100.00
2022-10-21T16:22:05.222Z,100.00
2022-10-21T16:24:35.107Z,100.00
2022-10-21T16:27:03.351Z,100.00
2022-10-21T16:29:31.584Z,100.00
2022-10-21T16:32:00.135Z,100.00
2022-10-21T16:34:28.519Z,100.00
2022-10-21T16:36:56.624Z,100.00
2022-10-21T16:39:25.539Z,100.00
2022-10-21T16:41:55.205Z,100.00
2022-10-21T16:44:23.735Z,100.00
2022-10-21T16:46:53.207Z,100.00
2022-10-21T16:49:24.028Z,100.00
2022-10-21T16:51:53.213Z,100.00
2022-10-21T16:54:22.655Z,100.00
2022-10-21T16:56:53.481Z,100.00
2022-10-21T16:59:27.200Z,100.00
2022-10-21T17:01:55.750Z,100.00
2022-10-21T17:04:24.627Z,100.00
2022-10-21T17:06:56.215Z,100.00
2022-10-21T17:09:28.389Z,100.00
2022-10-21T17:11:57.251Z,100.00
2022-10-21T17:14:27.074Z,100.00
2022-10-21T17:16:59.505Z,100.00
2022-10-21T17:19:29.168Z,100.00
2022-10-21T17:22:01.822Z,100.00
2022-10-21T17:24:32.718Z,100.00
2022-10-21T17:27:04.904Z,100.00
2022-10-21T17:29:42.108Z,100.00
2022-10-21T17:32:12.542Z,100.00
2022-10-21T17:34:43.581Z,100.00
2022-10-21T17:37:12.927Z,100.00
2022-10-21T17:39:42.053Z,100.00
2022-10-21T17:42:11.372Z,100.00
2022-10-21T17:44:40.931Z,100.00
2022-10-21T17:47:09.569Z,100.00
2022-10-21T17:49:38.085Z,100.00
2022-10-21T17:52:09.286Z,100.00
2022-10-21T17:54:38.068Z,100.00
2022-10-21T17:57:06.946Z,100.00
2022-10-21T17:59:35.609Z,100.00
2022-10-21T18:02:09.083Z,100.00
2022-10-21T18:04:38.542Z,100.00
2022-10-21T18:07:09.403Z,100.00
2022-10-21T18:09:40.660Z,100.00
2022-10-21T18:12:11.267Z,100.00
2022-10-21T18:14:39.580Z,100.00
2022-10-21T18:17:09.699Z,100.00
2022-10-21T18:19:39.106Z,100.00
2022-10-21T18:22:07.363Z,100.00
2022-10-21T18:24:37.996Z,100.00
2022-10-21T18:27:08.402Z,100.00
2022-10-21T18:29:38.439Z,100.00
2022-10-21T18:32:13.800Z,100.00
2022-10-21T18:34:43.660Z,100.00
2022-10-21T18:37:15.309Z,100.00
2022-10-21T18:39:43.942Z,100.00
2022-10-21T18:42:12.328Z,100.00
2022-10-21T18:44:40.609Z,100.00
2022-10-21T18:47:10.249Z,100.00
2022-10-21T18:49:38.472Z,100.00
2022-10-21T18:52:06.728Z,100.00
2022-10-21T18:54:34.841Z,100.00
2022-10-21T18:57:03.732Z,100.00
2022-10-21T18:59:32.207Z,100.00
2022-10-21T19:02:00.415Z,100.00
2022-10-21T19:04:29.904Z,100.00
2022-10-21T19:06:58.554Z,100.00
2022-10-21T19:09:27.508Z,100.00
2022-10-21T19:11:55.676Z,100.00
2022-10-21T19:14:24.007Z,100.00
2022-10-21T19:16:52.253Z,100.00
2022-10-21T19:19:20.508Z,100.00
2022-10-21T19:21:49.995Z,100.00
2022-10-21T19:24:18.261Z,100.00
2022-10-21T19:26:46.486Z,100.00
2022-10-21T19:29:17.252Z,100.00
2022-10-21T19:34:15.898Z,100.00
2022-10-21T19:36:44.123Z,100.00
2022-10-21T19:39:14.061Z,100.00
2022-10-21T19:41:42.370Z,100.00
2022-10-21T19:44:11.013Z,100.00
2022-10-21T19:46:39.390Z,100.00
2022-10-21T19:49:08.963Z,100.00
2022-10-21T19:51:38.461Z,100.00
2022-10-21T19:54:08.234Z,100.00
2022-10-21T19:56:37.711Z,100.00
2022-10-21T19:59:06.580Z,100.00
2022-10-21T20:01:35.516Z,100.00
2022-10-21T20:04:04.599Z,100.00
2022-10-21T20:06:34.207Z,100.00
2022-10-21T20:09:04.165Z,100.00
2022-10-21T20:11:32.686Z,100.00
2022-10-21T20:14:02.910Z,100.00
2022-10-21T20:16:33.030Z,100.00
2022-10-21T20:19:02.662Z,100.00
2022-10-21T20:21:32.594Z,100.00
2022-10-21T20:24:04.634Z,100.00
2022-10-21T20:26:33.072Z,100.00
2022-10-21T20:29:03.106Z,100.00
2022-10-21T20:31:32.453Z,100.00
2022-10-21T20:34:00.692Z,100.00
2022-10-21T20:36:30.310Z,100.00
2022-10-21T20:38:59.609Z,100.00
2022-10-21T20:41:31.079Z,100.00
2022-10-21T20:43:59.175Z,100.00
2022-10-21T20:46:29.499Z,100.00
2022-10-21T20:48:57.631Z,100.00
2022-10-21T20:51:29.218Z,100.00
2022-10-21T20:53:59.313Z,100.00
2022-10-21T20:56:31.306Z,100.00
2022-10-21T20:58:59.956Z,100.00
2022-10-21T21:01:32.176Z,100.00
2022-10-21T21:04:02.237Z,100.00
2022-10-21T21:06:30.335Z,100.00
2022-10-21T21:09:37.714Z,100.00
2022-10-21T21:11:48.504Z,100.00
2022-10-21T21:14:17.372Z,100.00
2022-10-21T21:16:46.903Z,100.00
2022-10-21T21:19:15.129Z,100.00
2022-10-21T21:21:43.330Z,100.00
2022-10-21T21:24:11.497Z,100.00
2022-10-21T21:26:40.710Z,100.00
2022-10-21T21:29:09.728Z,100.00
2022-10-21T21:31:39.290Z,100.00
2022-10-21T21:34:09.345Z,100.00
2022-10-21T21:36:38.042Z,100.00
2022-10-21T21:39:07.312Z,100.00
2022-10-21T21:41:36.516Z,100.00
2022-10-21T21:44:07.110Z,100.00
2022-10-21T21:46:35.532Z,100.00
2022-10-21T21:49:06.106Z,100.00
2022-10-21T21:51:39.018Z,100.00
2022-10-21T21:54:08.610Z,100.00
2022-10-21T21:56:36.939Z,100.00
2022-10-21T21:59:05.474Z,100.00
2022-10-21T22:01:34.130Z,100.00
2022-10-21T22:04:02.574Z,100.00
2022-10-21T22:06:32.490Z,100.00
2022-10-21T22:09:02.646Z,100.00
2022-10-21T22:11:32.681Z,100.00
2022-10-21T22:14:01.286Z,100.00
2022-10-21T22:16:30.582Z,100.00
2022-10-21T22:19:00.282Z,100.00
2022-10-21T22:21:29.285Z,100.00
2022-10-21T22:23:57.413Z,100.00
2022-10-21T22:26:27.723Z,100.00
2022-10-21T22:28:56.452Z,100.00
2022-10-21T22:31:29.220Z,100.00
2022-10-21T22:34:00.040Z,100.00
2022-10-21T22:36:28.214Z,100.00
2022-10-21T22:38:56.357Z,100.00
2022-10-21T22:41:24.576Z,100.00
2022-10-21T22:43:54.085Z,100.00
2022-10-21T22:46:33.247Z,100.00
2022-10-21T22:49:02.684Z,100.00
2022-10-21T22:51:30.808Z,100.00
2022-10-21T22:53:58.901Z,100.00
2022-10-21T22:56:27.838Z,100.00
2022-10-21T22:58:57.974Z,100.00
2022-10-21T23:01:30.430Z,100.00
2022-10-21T23:04:02.642Z,100.00
2022-10-21T23:06:31.069Z,100.00
2022-10-21T23:08:59.710Z,100.00
2022-10-21T23:11:28.130Z,100.00
2022-10-21T23:14:03.487Z,100.00
2022-10-21T23:16:36.547Z,100.00
2022-10-21T23:19:05.177Z,100.00
2022-10-21T23:21:33.408Z,100.00
2022-10-21T23:24:01.505Z,100.00
2022-10-21T23:26:29.623Z,100.00
2022-10-21T23:28:59.088Z,100.00
2022-10-21T23:31:27.359Z,100.00
2022-10-21T23:33:55.370Z,100.00
2022-10-21T23:36:23.532Z,100.00
2022-10-21T23:38:55.457Z,100.00
2022-10-21T23:41:23.862Z,100.00
2022-10-21T23:43:52.118Z,100.00
2022-10-21T23:46:21.950Z,100.00
2022-10-21T23:48:50.226Z,100.00
2022-10-21T23:51:19.766Z,100.00
2022-10-21T23:53:47.952Z,100.00
2022-10-21T23:56:16.171Z,100.00
2022-10-21T23:58:44.346Z,100.00
